sensor_id;sensor_type;location;lat;lon;timestamp;pressure;altitude;pressure_sealevel;temperature;humidity
31331;BME280;34067;39.548;-76.088;2022-12-20T00:01:13;102823.58;;;-3.86;48.49
31331;BME280;34067;39.548;-76.088;2022-12-20T00:03:41;102832.65;;;-3.38;48.00
31331;BME280;34067;39.548;-76.088;2022-12-20T00:06:10;102834.22;;;-4.27;48.03
31331;BME280;34067;39.548;-76.088;2022-12-20T00:08:39;102837.55;;;-3.65;48.31
31331;BME280;34067;39.548;-76.088;2022-12-20T00:11:09;102843.67;;;-3.61;48.09
31331;BME280;34067;39.548;-76.088;2022-12-20T00:13:38;102844.04;;;-4.43;48.41
31331;BME280;34067;39.548;-76.088;2022-12-20T00:16:09;102841.07;;;-3.17;47.79
31331;BME280;34067;39.548;-76.088;2022-12-20T00:18:40;102844.94;;;-3.47;47.82
31331;BME280;34067;39.548;-76.088;2022-12-20T00:21:10;102862.93;;;-3.79;48.34
31331;BME280;34067;39.548;-76.088;2022-12-20T00:23:40;102856.16;;;-3.37;48.47
31331;BME280;34067;39.548;-76.088;2022-12-20T00:26:11;102856.49;;;-3.69;48.43
31331;BME280;34067;39.548;-76.088;2022-12-20T00:28:41;102865.67;;;-3.59;48.35
31331;BME280;34067;39.548;-76.088;2022-12-20T00:31:11;102865.00;;;-4.25;48.23
31331;BME280;34067;39.548;-76.088;2022-12-20T00:33:40;102862.89;;;-2.87;47.04
31331;BME280;34067;39.548;-76.088;2022-12-20T00:36:11;102862.26;;;-3.83;48.35
31331;BME280;34067;39.548;-76.088;2022-12-20T00:38:40;102868.16;;;-3.61;47.85
31331;BME280;34067;39.548;-76.088;2022-12-20T00:41:13;102873.83;;;-3.04;47.35
31331;BME280;34067;39.548;-76.088;2022-12-20T00:43:42;102869.38;;;-4.10;47.63
31331;BME280;34067;39.548;-76.088;2022-12-20T00:46:12;102879.54;;;-3.08;48.02
31331;BME280;34067;39.548;-76.088;2022-12-20T00:48:41;102880.45;;;-3.76;47.76
31331;BME280;34067;39.548;-76.088;2022-12-20T00:51:17;102875.03;;;-3.20;47.57
31331;BME280;34067;39.548;-76.088;2022-12-20T00:53:46;102881.22;;;-3.52;47.74
31331;BME280;34067;39.548;-76.088;2022-12-20T00:56:14;102870.92;;;-3.28;48.57
31331;BME280;34067;39.548;-76.088;2022-12-20T00:58:43;102867.75;;;-3.42;48.07
31331;BME280;34067;39.548;-76.088;2022-12-20T01:01:19;102866.12;;;-3.81;48.28
31331;BME280;34067;39.548;-76.088;2022-12-20T01:03:47;102857.30;;;-3.69;47.85
31331;BME280;34067;39.548;-76.088;2022-12-20T01:06:16;102851.22;;;-3.89;48.33
31331;BME280;34067;39.548;-76.088;2022-12-20T01:08:44;102842.17;;;-4.61;49.36
31331;BME280;34067;39.548;-76.088;2022-12-20T01:11:14;102844.47;;;-4.16;48.79
31331;BME280;34067;39.548;-76.088;2022-12-20T01:13:45;102850.45;;;-4.56;50.03
31331;BME280;34067;39.548;-76.088;2022-12-20T01:16:17;102852.56;;;-4.17;49.61
31331;BME280;34067;39.548;-76.088;2022-12-20T01:18:48;102850.75;;;-4.27;49.41
31331;BME280;34067;39.548;-76.088;2022-12-20T01:21:18;102862.43;;;-4.31;49.41
31331;BME280;34067;39.548;-76.088;2022-12-20T01:23:47;102866.98;;;-4.21;49.66
31331;BME280;34067;39.548;-76.088;2022-12-20T01:26:18;102865.83;;;-3.49;50.07
31331;BME280;34067;39.548;-76.088;2022-12-20T01:28:47;102876.31;;;-4.44;50.42
31331;BME280;34067;39.548;-76.088;2022-12-20T01:31:17;102873.86;;;-4.22;50.32
31331;BME280;34067;39.548;-76.088;2022-12-20T01:33:47;102872.98;;;-3.80;49.17
31331;BME280;34067;39.548;-76.088;2022-12-20T01:36:18;102867.52;;;-3.97;50.32
31331;BME280;34067;39.548;-76.088;2022-12-20T01:38:47;102871.20;;;-4.55;50.14
31331;BME280;34067;39.548;-76.088;2022-12-20T01:41:18;102867.02;;;-3.83;50.05
31331;BME280;34067;39.548;-76.088;2022-12-20T01:43:50;102888.41;;;-4.60;50.54
31331;BME280;34067;39.548;-76.088;2022-12-20T01:46:22;102878.49;;;-4.06;51.06
31331;BME280;34067;39.548;-76.088;2022-12-20T01:48:55;102882.23;;;-4.05;50.81
31331;BME280;34067;39.548;-76.088;2022-12-20T01:51:35;102881.42;;;-3.98;50.85
31331;BME280;34067;39.548;-76.088;2022-12-20T01:54:11;102875.06;;;-4.60;50.99
31331;BME280;34067;39.548;-76.088;2022-12-20T01:56:44;102878.28;;;-4.13;51.63
31331;BME280;34067;39.548;-76.088;2022-12-20T01:59:15;102878.34;;;-4.43;50.89
31331;BME280;34067;39.548;-76.088;2022-12-20T02:01:44;102878.69;;;-4.73;51.67
31331;BME280;34067;39.548;-76.088;2022-12-20T02:04:12;102905.65;;;-4.27;51.90
31331;BME280;34067;39.548;-76.088;2022-12-20T02:06:41;102888.45;;;-3.80;50.82
31331;BME280;34067;39.548;-76.088;2022-12-20T02:09:09;102882.75;;;-4.22;50.52
31331;BME280;34067;39.548;-76.088;2022-12-20T02:11:49;102884.12;;;-4.44;51.33
31331;BME280;34067;39.548;-76.088;2022-12-20T02:14:38;102888.52;;;-4.12;51.19
31331;BME280;34067;39.548;-76.088;2022-12-20T02:17:27;102900.87;;;-4.78;51.07
31331;BME280;34067;39.548;-76.088;2022-12-20T02:20:18;102893.72;;;-4.96;51.23
31331;BME280;34067;39.548;-76.088;2022-12-20T02:23:13;102890.04;;;-4.39;52.01
31331;BME280;34067;39.548;-76.088;2022-12-20T02:25:52;102897.80;;;-4.48;51.04
31331;BME280;34067;39.548;-76.088;2022-12-20T02:28:44;102896.97;;;-3.91;51.23
31331;BME280;34067;39.548;-76.088;2022-12-20T02:31:28;102903.17;;;-4.18;51.17
31331;BME280;34067;39.548;-76.088;2022-12-20T02:34:00;102918.74;;;-3.89;51.63
31331;BME280;34067;39.548;-76.088;2022-12-20T02:36:29;102925.11;;;-4.80;52.45
31331;BME280;34067;39.548;-76.088;2022-12-20T02:38:57;102926.04;;;-3.78;51.33
31331;BME280;34067;39.548;-76.088;2022-12-20T02:41:28;102923.27;;;-3.45;50.90
31331;BME280;34067;39.548;-76.088;2022-12-20T02:44:00;102923.26;;;-3.62;50.85
31331;BME280;34067;39.548;-76.088;2022-12-20T02:46:32;102927.25;;;-3.46;52.15
31331;BME280;34067;39.548;-76.088;2022-12-20T02:49:06;102931.33;;;-3.82;50.79
31331;BME280;34067;39.548;-76.088;2022-12-20T02:51:37;102915.39;;;-4.29;51.52
31331;BME280;34067;39.548;-76.088;2022-12-20T02:54:08;102925.02;;;-4.28;51.94
31331;BME280;34067;39.548;-76.088;2022-12-20T02:56:40;102932.07;;;-4.12;52.07
31331;BME280;34067;39.548;-76.088;2022-12-20T02:59:13;102919.19;;;-3.99;52.27
31331;BME280;34067;39.548;-76.088;2022-12-20T03:01:48;102922.63;;;-3.74;51.52
31331;BME280;34067;39.548;-76.088;2022-12-20T03:04:20;102939.51;;;-4.64;52.67
31331;BME280;34067;39.548;-76.088;2022-12-20T03:06:59;102914.82;;;-3.48;51.25
31331;BME280;34067;39.548;-76.088;2022-12-20T03:09:27;102917.93;;;-4.07;52.60
31331;BME280;34067;39.548;-76.088;2022-12-20T03:11:57;102914.79;;;-3.80;52.76
31331;BME280;34067;39.548;-76.088;2022-12-20T03:14:25;102928.82;;;-4.61;53.45
31331;BME280;34067;39.548;-76.088;2022-12-20T03:16:53;102920.32;;;-3.92;51.85
31331;BME280;34067;39.548;-76.088;2022-12-20T03:19:21;102922.38;;;-3.95;52.27
31331;BME280;34067;39.548;-76.088;2022-12-20T03:21:49;102919.39;;;-4.75;54.42
31331;BME280;34067;39.548;-76.088;2022-12-20T03:24:18;102918.86;;;-3.91;52.12
31331;BME280;34067;39.548;-76.088;2022-12-20T03:26:47;102917.20;;;-3.73;51.82
31331;BME280;34067;39.548;-76.088;2022-12-20T03:29:16;102915.10;;;-3.49;51.44
31331;BME280;34067;39.548;-76.088;2022-12-20T03:31:44;102894.30;;;-4.10;52.24
31331;BME280;34067;39.548;-76.088;2022-12-20T03:34:12;102913.61;;;-4.56;52.87
31331;BME280;34067;39.548;-76.088;2022-12-20T03:36:41;102917.88;;;-5.16;54.36
31331;BME280;34067;39.548;-76.088;2022-12-20T03:39:09;102914.25;;;-4.57;54.12
31331;BME280;34067;39.548;-76.088;2022-12-20T03:41:38;102915.04;;;-4.48;52.95
31331;BME280;34067;39.548;-76.088;2022-12-20T03:44:05;102918.45;;;-4.99;54.16
31331;BME280;34067;39.548;-76.088;2022-12-20T03:46:33;102921.45;;;-5.37;56.12
31331;BME280;34067;39.548;-76.088;2022-12-20T03:49:02;102942.40;;;-5.21;54.34
31331;BME280;34067;39.548;-76.088;2022-12-20T03:51:41;102923.06;;;-5.14;55.36
31331;BME280;34067;39.548;-76.088;2022-12-20T03:54:09;102923.88;;;-3.96;54.05
31331;BME280;34067;39.548;-76.088;2022-12-20T03:56:38;102935.48;;;-4.55;53.65
31331;BME280;34067;39.548;-76.088;2022-12-20T03:59:06;102917.43;;;-4.57;53.86
31331;BME280;34067;39.548;-76.088;2022-12-20T04:01:34;102921.81;;;-4.84;53.33
31331;BME280;34067;39.548;-76.088;2022-12-20T04:04:02;102908.52;;;-4.23;52.80
31331;BME280;34067;39.548;-76.088;2022-12-20T04:06:31;102919.23;;;-4.35;52.50
31331;BME280;34067;39.548;-76.088;2022-12-20T04:08:59;102925.55;;;-3.89;51.98
31331;BME280;34067;39.548;-76.088;2022-12-20T04:11:27;102922.07;;;-4.48;52.92
31331;BME280;34067;39.548;-76.088;2022-12-20T04:13:56;102920.44;;;-5.01;55.33
31331;BME280;34067;39.548;-76.088;2022-12-20T04:16:26;102911.90;;;-3.80;53.19
31331;BME280;34067;39.548;-76.088;2022-12-20T04:18:56;102917.47;;;-5.05;53.56
31331;BME280;34067;39.548;-76.088;2022-12-20T04:21:26;102926.58;;;-5.28;54.39
31331;BME280;34067;39.548;-76.088;2022-12-20T04:23:55;102903.75;;;-4.44;52.70
31331;BME280;34067;39.548;-76.088;2022-12-20T04:26:23;102922.31;;;-4.99;53.25
31331;BME280;34067;39.548;-76.088;2022-12-20T04:28:52;102916.55;;;-4.69;53.59
31331;BME280;34067;39.548;-76.088;2022-12-20T04:31:20;102922.68;;;-4.57;52.64
31331;BME280;34067;39.548;-76.088;2022-12-20T04:33:48;102907.87;;;-4.43;53.32
31331;BME280;34067;39.548;-76.088;2022-12-20T04:36:18;102905.17;;;-4.81;53.06
31331;BME280;34067;39.548;-76.088;2022-12-20T04:38:46;102895.38;;;-4.37;52.15
31331;BME280;34067;39.548;-76.088;2022-12-20T04:41:13;102908.86;;;-3.59;51.13
31331;BME280;34067;39.548;-76.088;2022-12-20T04:43:42;102906.99;;;-3.96;50.95
31331;BME280;34067;39.548;-76.088;2022-12-20T04:46:10;102898.94;;;-4.45;52.07
31331;BME280;34067;39.548;-76.088;2022-12-20T04:48:38;102899.06;;;-4.22;51.90
31331;BME280;34067;39.548;-76.088;2022-12-20T04:51:06;102911.97;;;-4.01;51.62
31331;BME280;34067;39.548;-76.088;2022-12-20T04:53:34;102930.81;;;-4.61;51.95
31331;BME280;34067;39.548;-76.088;2022-12-20T04:56:05;102908.74;;;-4.11;51.78
31331;BME280;34067;39.548;-76.088;2022-12-20T04:58:33;102900.21;;;-3.75;50.41
31331;BME280;34067;39.548;-76.088;2022-12-20T05:01:02;102906.74;;;-3.27;50.14
31331;BME280;34067;39.548;-76.088;2022-12-20T05:03:30;102910.44;;;-3.63;50.26
31331;BME280;34067;39.548;-76.088;2022-12-20T05:05:58;102911.74;;;-3.81;51.68
31331;BME280;34067;39.548;-76.088;2022-12-20T05:08:26;102920.55;;;-4.13;51.17
31331;BME280;34067;39.548;-76.088;2022-12-20T05:10:55;102900.85;;;-4.30;52.23
31331;BME280;34067;39.548;-76.088;2022-12-20T05:13:23;102906.76;;;-4.78;52.83
31331;BME280;34067;39.548;-76.088;2022-12-20T05:15:54;102909.73;;;-3.49;50.28
31331;BME280;34067;39.548;-76.088;2022-12-20T05:18:24;102905.16;;;-3.71;50.72
31331;BME280;34067;39.548;-76.088;2022-12-20T05:20:55;102902.23;;;-4.33;51.09
31331;BME280;34067;39.548;-76.088;2022-12-20T05:23:23;102902.77;;;-4.69;52.98
31331;BME280;34067;39.548;-76.088;2022-12-20T05:25:53;102898.63;;;-3.58;50.40
31331;BME280;34067;39.548;-76.088;2022-12-20T05:28:21;102909.21;;;-3.98;51.25
31331;BME280;34067;39.548;-76.088;2022-12-20T05:30:50;102914.58;;;-4.16;50.57
31331;BME280;34067;39.548;-76.088;2022-12-20T05:33:19;102905.37;;;-4.24;50.84
31331;BME280;34067;39.548;-76.088;2022-12-20T05:35:52;102920.30;;;-3.71;50.00
31331;BME280;34067;39.548;-76.088;2022-12-20T05:38:21;102910.17;;;-4.33;50.09
31331;BME280;34067;39.548;-76.088;2022-12-20T05:40:49;102905.76;;;-3.67;49.51
31331;BME280;34067;39.548;-76.088;2022-12-20T05:43:18;102915.98;;;-3.68;49.67
31331;BME280;34067;39.548;-76.088;2022-12-20T05:45:49;102927.09;;;-4.01;49.61
31331;BME280;34067;39.548;-76.088;2022-12-20T05:48:19;102923.55;;;-3.79;49.86
31331;BME280;34067;39.548;-76.088;2022-12-20T05:50:52;102930.20;;;-4.65;50.78
31331;BME280;34067;39.548;-76.088;2022-12-20T05:53:20;102931.58;;;-2.94;49.47
31331;BME280;34067;39.548;-76.088;2022-12-20T05:55:50;102923.33;;;-3.11;49.30
31331;BME280;34067;39.548;-76.088;2022-12-20T05:58:18;102925.68;;;-4.28;49.70
31331;BME280;34067;39.548;-76.088;2022-12-20T06:03:11;102918.81;;;-3.65;49.28
31331;BME280;34067;39.548;-76.088;2022-12-20T06:05:39;102915.56;;;-2.93;49.19
31331;BME280;34067;39.548;-76.088;2022-12-20T06:08:07;102914.99;;;-3.07;47.97
31331;BME280;34067;39.548;-76.088;2022-12-20T06:10:35;102915.65;;;-4.06;49.57
31331;BME280;34067;39.548;-76.088;2022-12-20T06:13:03;102913.62;;;-2.78;48.37
31331;BME280;34067;39.548;-76.088;2022-12-20T06:15:32;102919.60;;;-2.79;47.58
31331;BME280;34067;39.548;-76.088;2022-12-20T06:18:00;102918.20;;;-2.28;46.74
31331;BME280;34067;39.548;-76.088;2022-12-20T06:20:29;102920.26;;;-2.67;47.02
31331;BME280;34067;39.548;-76.088;2022-12-20T06:22:58;102916.54;;;-3.81;47.71
31331;BME280;34067;39.548;-76.088;2022-12-20T06:25:27;102919.86;;;-4.56;48.54
31331;BME280;34067;39.548;-76.088;2022-12-20T06:27:55;102908.68;;;-3.79;48.89
31331;BME280;34067;39.548;-76.088;2022-12-20T06:30:24;102907.27;;;-2.92;48.57
31331;BME280;34067;39.548;-76.088;2022-12-20T06:32:52;102910.02;;;-2.88;48.16
31331;BME280;34067;39.548;-76.088;2022-12-20T06:35:19;102916.76;;;-3.50;48.84
31331;BME280;34067;39.548;-76.088;2022-12-20T06:37:47;102920.98;;;-3.37;48.57
31331;BME280;34067;39.548;-76.088;2022-12-20T06:40:15;102920.50;;;-3.97;49.68
31331;BME280;34067;39.548;-76.088;2022-12-20T06:42:43;102916.76;;;-4.92;50.74
31331;BME280;34067;39.548;-76.088;2022-12-20T06:45:11;102915.86;;;-4.64;50.73
31331;BME280;34067;39.548;-76.088;2022-12-20T06:47:39;102917.51;;;-4.15;50.81
31331;BME280;34067;39.548;-76.088;2022-12-20T06:50:07;102917.83;;;-4.44;49.76
31331;BME280;34067;39.548;-76.088;2022-12-20T06:52:35;102917.94;;;-2.61;48.39
31331;BME280;34067;39.548;-76.088;2022-12-20T06:55:04;102921.13;;;-1.55;47.08
31331;BME280;34067;39.548;-76.088;2022-12-20T06:57:32;102919.66;;;-2.08;46.12
31331;BME280;34067;39.548;-76.088;2022-12-20T07:00:00;102923.94;;;-2.27;45.59
31331;BME280;34067;39.548;-76.088;2022-12-20T07:02:29;102927.49;;;-1.87;44.92
31331;BME280;34067;39.548;-76.088;2022-12-20T07:04:57;102935.08;;;-1.68;45.05
31331;BME280;34067;39.548;-76.088;2022-12-20T07:07:25;102941.57;;;-1.85;45.45
31331;BME280;34067;39.548;-76.088;2022-12-20T07:09:53;102951.03;;;-3.17;46.42
31331;BME280;34067;39.548;-76.088;2022-12-20T07:12:21;102947.84;;;-3.25;47.58
31331;BME280;34067;39.548;-76.088;2022-12-20T07:14:49;102950.01;;;-3.81;47.41
31331;BME280;34067;39.548;-76.088;2022-12-20T07:17:17;102958.18;;;-2.99;47.06
31331;BME280;34067;39.548;-76.088;2022-12-20T07:19:45;102961.34;;;-2.48;47.08
31331;BME280;34067;39.548;-76.088;2022-12-20T07:22:13;102962.73;;;-3.23;47.78
31331;BME280;34067;39.548;-76.088;2022-12-20T07:24:40;102965.37;;;-3.40;46.94
31331;BME280;34067;39.548;-76.088;2022-12-20T07:27:10;102967.41;;;-3.79;48.03
31331;BME280;34067;39.548;-76.088;2022-12-20T07:29:39;102970.75;;;-3.35;47.21
31331;BME280;34067;39.548;-76.088;2022-12-20T07:32:08;102968.88;;;-3.86;48.28
31331;BME280;34067;39.548;-76.088;2022-12-20T07:34:37;102969.39;;;-3.62;48.19
31331;BME280;34067;39.548;-76.088;2022-12-20T07:37:05;102973.25;;;-3.51;47.64
31331;BME280;34067;39.548;-76.088;2022-12-20T07:39:33;102983.98;;;-2.52;46.61
31331;BME280;34067;39.548;-76.088;2022-12-20T07:42:01;102993.48;;;-3.05;47.07
31331;BME280;34067;39.548;-76.088;2022-12-20T07:44:29;103002.37;;;-1.82;45.93
31331;BME280;34067;39.548;-76.088;2022-12-20T07:46:57;103000.28;;;-2.45;45.61
31331;BME280;34067;39.548;-76.088;2022-12-20T07:49:25;102998.08;;;-3.17;46.56
31331;BME280;34067;39.548;-76.088;2022-12-20T07:51:54;103005.83;;;-2.17;45.80
31331;BME280;34067;39.548;-76.088;2022-12-20T07:54:27;102999.77;;;-2.18;45.22
31331;BME280;34067;39.548;-76.088;2022-12-20T07:56:58;102994.26;;;-2.01;44.53
31331;BME280;34067;39.548;-76.088;2022-12-20T07:59:32;102994.54;;;-1.95;44.18
31331;BME280;34067;39.548;-76.088;2022-12-20T08:02:03;103001.40;;;-1.76;44.05
31331;BME280;34067;39.548;-76.088;2022-12-20T08:04:33;103000.71;;;-1.28;43.68
31331;BME280;34067;39.548;-76.088;2022-12-20T08:07:02;103003.24;;;-1.37;43.21
31331;BME280;34067;39.548;-76.088;2022-12-20T08:09:34;103005.42;;;-1.67;43.79
31331;BME280;34067;39.548;-76.088;2022-12-20T08:12:04;103005.00;;;-1.23;43.56
31331;BME280;34067;39.548;-76.088;2022-12-20T08:14:32;103008.41;;;-1.89;43.88
31331;BME280;34067;39.548;-76.088;2022-12-20T08:17:00;103008.99;;;-2.23;44.28
31331;BME280;34067;39.548;-76.088;2022-12-20T08:19:28;103007.66;;;-2.29;44.55
31331;BME280;34067;39.548;-76.088;2022-12-20T08:21:57;103007.48;;;-2.02;44.86
31331;BME280;34067;39.548;-76.088;2022-12-20T08:24:25;102997.02;;;-1.21;44.60
31331;BME280;34067;39.548;-76.088;2022-12-20T08:26:53;103005.49;;;-1.12;44.25
31331;BME280;34067;39.548;-76.088;2022-12-20T08:29:21;103003.23;;;-1.07;43.58
31331;BME280;34067;39.548;-76.088;2022-12-20T08:31:54;103003.71;;;-1.30;43.43
31331;BME280;34067;39.548;-76.088;2022-12-20T08:34:22;103002.62;;;-1.44;43.47
31331;BME280;34067;39.548;-76.088;2022-12-20T08:36:50;103006.85;;;-2.04;43.87
31331;BME280;34067;39.548;-76.088;2022-12-20T08:39:18;102999.99;;;-1.30;43.40
31331;BME280;34067;39.548;-76.088;2022-12-20T08:41:46;102996.65;;;-0.66;43.05
31331;BME280;34067;39.548;-76.088;2022-12-20T08:44:15;102995.74;;;-1.13;42.93
31331;BME280;34067;39.548;-76.088;2022-12-20T08:46:48;103000.64;;;-1.49;43.38
31331;BME280;34067;39.548;-76.088;2022-12-20T08:49:17;103002.70;;;-1.89;43.60
31331;BME280;34067;39.548;-76.088;2022-12-20T08:51:44;102991.09;;;-1.52;43.46
31331;BME280;34067;39.548;-76.088;2022-12-20T08:54:13;102990.02;;;-0.95;43.46
31331;BME280;34067;39.548;-76.088;2022-12-20T08:56:42;102985.78;;;-1.54;43.66
31331;BME280;34067;39.548;-76.088;2022-12-20T08:59:10;102984.14;;;-1.63;43.69
31331;BME280;34067;39.548;-76.088;2022-12-20T09:01:38;102985.58;;;-1.20;43.61
31331;BME280;34067;39.548;-76.088;2022-12-20T09:04:06;102982.48;;;-1.76;43.66
31331;BME280;34067;39.548;-76.088;2022-12-20T09:06:34;102984.26;;;-1.87;44.03
31331;BME280;34067;39.548;-76.088;2022-12-20T09:09:03;102994.59;;;-2.13;45.30
31331;BME280;34067;39.548;-76.088;2022-12-20T09:11:32;102993.55;;;-1.93;44.33
31331;BME280;34067;39.548;-76.088;2022-12-20T09:14:00;102990.32;;;-1.82;44.06
31331;BME280;34067;39.548;-76.088;2022-12-20T09:16:30;102993.43;;;-1.46;43.89
31331;BME280;34067;39.548;-76.088;2022-12-20T09:19:01;103004.20;;;-2.07;44.76
31331;BME280;34067;39.548;-76.088;2022-12-20T09:21:30;103009.86;;;-2.33;44.79
31331;BME280;34067;39.548;-76.088;2022-12-20T09:23:58;103012.10;;;-1.45;43.89
31331;BME280;34067;39.548;-76.088;2022-12-20T09:26:26;103018.33;;;-1.71;44.14
31331;BME280;34067;39.548;-76.088;2022-12-20T09:28:55;103015.18;;;-1.45;43.47
31331;BME280;34067;39.548;-76.088;2022-12-20T09:31:25;103012.86;;;-1.33;43.30
31331;BME280;34067;39.548;-76.088;2022-12-20T09:33:54;103017.75;;;-0.67;43.05
31331;BME280;34067;39.548;-76.088;2022-12-20T09:36:29;103017.08;;;-0.92;43.22
31331;BME280;34067;39.548;-76.088;2022-12-20T09:38:57;103019.64;;;-1.25;43.20
31331;BME280;34067;39.548;-76.088;2022-12-20T09:41:30;103016.27;;;-1.16;43.02
31331;BME280;34067;39.548;-76.088;2022-12-20T09:44:06;103018.22;;;-1.39;42.98
31331;BME280;34067;39.548;-76.088;2022-12-20T09:46:39;103018.92;;;-1.04;43.39
31331;BME280;34067;39.548;-76.088;2022-12-20T09:49:14;103021.39;;;-1.54;43.66
31331;BME280;34067;39.548;-76.088;2022-12-20T09:51:58;103020.37;;;-1.57;43.42
31331;BME280;34067;39.548;-76.088;2022-12-20T09:54:33;103021.46;;;-1.47;43.12
31331;BME280;34067;39.548;-76.088;2022-12-20T09:57:10;103027.37;;;-2.17;44.20
31331;BME280;34067;39.548;-76.088;2022-12-20T09:59:44;103028.30;;;-1.85;43.55
31331;BME280;34067;39.548;-76.088;2022-12-20T10:02:14;103030.22;;;-1.68;43.70
31331;BME280;34067;39.548;-76.088;2022-12-20T10:04:43;103028.76;;;-1.74;43.75
31331;BME280;34067;39.548;-76.088;2022-12-20T10:07:25;103029.71;;;-1.73;44.26
31331;BME280;34067;39.548;-76.088;2022-12-20T10:10:20;103028.52;;;-2.30;44.28
31331;BME280;34067;39.548;-76.088;2022-12-20T10:13:16;103025.07;;;-1.14;44.14
31331;BME280;34067;39.548;-76.088;2022-12-20T10:15:51;103028.32;;;-3.21;45.31
31331;BME280;34067;39.548;-76.088;2022-12-20T10:18:36;103028.25;;;-2.01;44.84
31331;BME280;34067;39.548;-76.088;2022-12-20T10:21:14;103025.53;;;-1.66;44.39
31331;BME280;34067;39.548;-76.088;2022-12-20T10:23:57;103024.79;;;-1.59;44.14
31331;BME280;34067;39.548;-76.088;2022-12-20T10:26:28;103022.60;;;-2.18;44.10
31331;BME280;34067;39.548;-76.088;2022-12-20T10:28:57;103024.58;;;-1.51;43.93
31331;BME280;34067;39.548;-76.088;2022-12-20T10:31:25;103023.24;;;-2.01;44.32
31331;BME280;34067;39.548;-76.088;2022-12-20T10:33:54;103024.65;;;-1.72;44.64
31331;BME280;34067;39.548;-76.088;2022-12-20T10:36:24;103017.35;;;-2.07;44.53
31331;BME280;34067;39.548;-76.088;2022-12-20T10:38:55;103013.67;;;-1.85;44.58
31331;BME280;34067;39.548;-76.088;2022-12-20T10:41:25;103017.96;;;-3.11;45.59
31331;BME280;34067;39.548;-76.088;2022-12-20T10:43:57;103026.24;;;-2.45;45.31
31331;BME280;34067;39.548;-76.088;2022-12-20T10:46:42;103033.92;;;-1.90;44.96
31331;BME280;34067;39.548;-76.088;2022-12-20T10:49:27;103038.98;;;-1.99;45.18
31331;BME280;34067;39.548;-76.088;2022-12-20T10:51:58;103045.89;;;-2.51;45.02
31331;BME280;34067;39.548;-76.088;2022-12-20T10:54:31;103050.03;;;-2.00;45.11
31331;BME280;34067;39.548;-76.088;2022-12-20T10:57:01;103051.72;;;-1.80;44.91
31331;BME280;34067;39.548;-76.088;2022-12-20T10:59:34;103058.12;;;-2.04;44.76
31331;BME280;34067;39.548;-76.088;2022-12-20T11:02:23;103065.63;;;-2.31;45.24
31331;BME280;34067;39.548;-76.088;2022-12-20T11:04:59;103068.09;;;-2.21;45.49
31331;BME280;34067;39.548;-76.088;2022-12-20T11:07:29;103069.22;;;-3.70;46.48
31331;BME280;34067;39.548;-76.088;2022-12-20T11:10:00;103071.85;;;-2.81;45.85
31331;BME280;34067;39.548;-76.088;2022-12-20T11:12:28;103075.51;;;-2.04;45.11
31331;BME280;34067;39.548;-76.088;2022-12-20T11:15:09;103086.11;;;-2.17;45.02
31331;BME280;34067;39.548;-76.088;2022-12-20T11:17:42;103091.16;;;-2.07;44.89
31331;BME280;34067;39.548;-76.088;2022-12-20T11:20:24;103091.47;;;-1.78;45.00
31331;BME280;34067;39.548;-76.088;2022-12-20T11:23:08;103089.64;;;-2.51;45.37
31331;BME280;34067;39.548;-76.088;2022-12-20T11:25:51;103089.69;;;-1.99;45.11
31331;BME280;34067;39.548;-76.088;2022-12-20T11:28:40;103090.85;;;-3.25;45.99
31331;BME280;34067;39.548;-76.088;2022-12-20T11:31:19;103096.45;;;-2.35;45.51
31331;BME280;34067;39.548;-76.088;2022-12-20T11:34:03;103097.22;;;-2.59;45.06
31331;BME280;34067;39.548;-76.088;2022-12-20T11:36:51;103099.11;;;-1.97;45.03
31331;BME280;34067;39.548;-76.088;2022-12-20T11:39:29;103102.05;;;-2.32;45.23
31331;BME280;34067;39.548;-76.088;2022-12-20T11:42:02;103108.30;;;-2.26;45.39
31331;BME280;34067;39.548;-76.088;2022-12-20T11:44:48;103109.11;;;-2.04;45.32
31331;BME280;34067;39.548;-76.088;2022-12-20T11:47:37;103111.03;;;-2.31;44.78
31331;BME280;34067;39.548;-76.088;2022-12-20T11:50:19;103117.75;;;-2.33;45.36
31331;BME280;34067;39.548;-76.088;2022-12-20T11:52:59;103116.83;;;-2.76;45.64
31331;BME280;34067;39.548;-76.088;2022-12-20T11:55:33;103117.56;;;-1.94;45.38
31331;BME280;34067;39.548;-76.088;2022-12-20T11:58:10;103117.66;;;-2.27;45.78
31331;BME280;34067;39.548;-76.088;2022-12-20T12:00:42;103117.04;;;-2.10;45.39
31331;BME280;34067;39.548;-76.088;2022-12-20T12:03:17;103116.24;;;-1.83;45.32
31331;BME280;34067;39.548;-76.088;2022-12-20T12:05:53;103110.87;;;-1.61;45.47
31331;BME280;34067;39.548;-76.088;2022-12-20T12:08:27;103108.86;;;-2.10;45.64
31331;BME280;34067;39.548;-76.088;2022-12-20T12:11:01;103102.11;;;-2.95;46.15
31331;BME280;34067;39.548;-76.088;2022-12-20T12:13:34;103100.93;;;-2.54;46.32
31331;BME280;34067;39.548;-76.088;2022-12-20T12:16:07;103099.98;;;-2.87;46.60
31331;BME280;34067;39.548;-76.088;2022-12-20T12:18:39;103098.09;;;-3.83;47.89
31331;BME280;34067;39.548;-76.088;2022-12-20T12:21:12;103094.40;;;-3.43;47.61
31331;BME280;34067;39.548;-76.088;2022-12-20T12:23:52;103090.72;;;-3.62;48.62
31331;BME280;34067;39.548;-76.088;2022-12-20T12:26:27;103089.92;;;-4.23;48.63
31331;BME280;34067;39.548;-76.088;2022-12-20T12:28:58;103086.82;;;-2.74;46.68
31331;BME280;34067;39.548;-76.088;2022-12-20T12:31:30;103085.98;;;-2.70;47.27
31331;BME280;34067;39.548;-76.088;2022-12-20T12:34:09;103090.71;;;-3.37;47.45
31331;BME280;34067;39.548;-76.088;2022-12-20T12:36:58;103088.54;;;-3.73;48.20
31331;BME280;34067;39.548;-76.088;2022-12-20T12:39:49;103093.85;;;-3.72;48.60
31331;BME280;34067;39.548;-76.088;2022-12-20T12:43:00;103096.15;;;-3.58;48.69
31331;BME280;34067;39.548;-76.088;2022-12-20T12:45:36;103095.21;;;-2.77;48.39
31331;BME280;34067;39.548;-76.088;2022-12-20T12:48:14;103099.08;;;-3.00;48.08
31331;BME280;34067;39.548;-76.088;2022-12-20T12:50:47;103100.99;;;-2.92;47.82
31331;BME280;34067;39.548;-76.088;2022-12-20T12:53:21;103102.40;;;-2.82;47.30
31331;BME280;34067;39.548;-76.088;2022-12-20T12:55:52;103102.36;;;-2.74;47.14